createdAt,value
2023-04-18T00:04:47.756Z,81.65
2023-04-18T00:14:52.123Z,81.19
2023-04-18T00:24:54.637Z,81.68
2023-04-18T00:34:58.336Z,83.09
2023-04-18T00:45:00.893Z,81.30
2023-04-18T00:55:05.125Z,81.44
2023-04-18T01:05:08.065Z,81.58
2023-04-18T01:15:12.493Z,81.94
2023-04-18T01:25:16.289Z,82.20
2023-04-18T01:35:18.849Z,81.16
2023-04-18T01:45:22.931Z,79.45
2023-04-18T01:55:25.293Z,80.03
2023-04-18T02:15:56.580Z,81.26
2023-04-18T02:25:59.105Z,82.34
2023-04-18T02:36:02.814Z,79.55
2023-04-18T02:46:05.613Z,80.70
2023-04-18T02:56:11.747Z,80.91
2023-04-18T03:06:14.256Z,79.77
2023-04-18T03:16:19.183Z,80.04
2023-04-18T03:26:21.759Z,80.67
2023-04-18T03:36:27.258Z,80.97
2023-04-18T03:46:29.881Z,80.71
2023-04-18T03:56:34.157Z,82.11
2023-04-18T04:06:36.560Z,82.63
2023-04-18T04:16:40.522Z,81.21
2023-04-18T04:26:43.300Z,82.29
2023-04-18T04:36:47.993Z,83.27
2023-04-18T04:46:50.608Z,82.25
2023-04-18T04:56:54.430Z,82.08
2023-04-18T05:06:57.420Z,83.48
2023-04-18T05:17:01.294Z,82.33
2023-04-18T05:27:03.815Z,82.72
2023-04-18T05:37:07.652Z,83.52
2023-04-18T05:47:10.078Z,83.81
2023-04-18T05:57:14.063Z,83.87
2023-04-18T06:07:16.546Z,83.45
2023-04-18T06:17:21.325Z,83.81
2023-04-18T06:27:31.164Z,84.43
2023-04-18T06:37:35.872Z,83.36
2023-04-18T06:47:38.458Z,85.06
2023-04-18T06:57:42.619Z,82.90
2023-04-18T07:07:45.068Z,83.90
2023-04-18T07:17:48.915Z,84.17
2023-04-18T07:27:51.430Z,81.93
2023-04-18T07:37:55.481Z,82.73
2023-04-18T07:47:57.970Z,82.00
2023-04-18T07:58:01.739Z,80.96
2023-04-18T08:08:04.116Z,79.41
2023-04-18T08:18:07.986Z,80.48
2023-04-18T08:28:10.868Z,80.19
2023-04-18T08:38:14.741Z,79.55
2023-04-18T08:48:17.609Z,75.11
2023-04-18T08:58:23.403Z,76.28
2023-04-18T09:08:25.794Z,78.39
2023-04-18T09:18:30.772Z,77.92
2023-04-18T09:28:34.022Z,76.62
2023-04-18T09:38:41.460Z,76.37
2023-04-18T09:48:43.999Z,76.87
2023-04-18T09:58:48.284Z,76.35
2023-04-18T10:08:52.476Z,73.16
2023-04-18T10:18:56.451Z,72.72
2023-04-18T10:28:59.394Z,72.20
2023-04-18T10:39:20.425Z,71.56
2023-04-18T10:49:25.916Z,70.85
2023-04-18T10:59:31.753Z,70.63
2023-04-18T11:09:34.394Z,69.50
2023-04-18T11:19:38.122Z,69.55
2023-04-18T11:29:40.541Z,68.04
2023-04-18T11:39:44.801Z,68.83
2023-04-18T11:49:47.194Z,69.58
2023-04-18T11:59:51.885Z,70.67
2023-04-18T12:09:54.421Z,70.96
2023-04-18T12:20:02.022Z,69.71
2023-04-18T12:30:04.798Z,67.72
2023-04-18T12:40:10.806Z,66.41
2023-04-18T12:50:17.276Z,64.61
2023-04-18T13:00:23.224Z,66.10
2023-04-18T13:10:26.625Z,65.99
2023-04-18T13:20:30.570Z,66.14
2023-04-18T13:30:35.578Z,64.78
2023-04-18T13:40:39.778Z,65.84
2023-04-18T13:50:42.764Z,63.34
2023-04-18T14:00:46.599Z,64.99
2023-04-18T14:10:49.121Z,64.84
2023-04-18T14:20:53.367Z,64.81
2023-04-18T14:30:57.941Z,64.98
2023-04-18T14:41:01.888Z,63.29
2023-04-18T14:51:04.390Z,64.12
2023-04-18T15:01:08.105Z,63.11
2023-04-18T15:11:11.274Z,62.58
2023-04-18T15:21:15.056Z,62.58
2023-04-18T15:31:17.917Z,62.52
2023-04-18T15:41:21.954Z,62.52
2023-04-18T15:51:28.305Z,63.84
2023-04-18T16:01:32.187Z,63.91
2023-04-18T16:11:34.591Z,63.43
2023-04-18T16:21:38.324Z,63.53
2023-04-18T16:31:41.508Z,69.48
2023-04-18T16:41:45.344Z,65.05
2023-04-18T16:51:47.753Z,65.39
2023-04-18T17:01:51.540Z,66.01
2023-04-18T17:11:53.983Z,63.91
2023-04-18T17:21:57.706Z,64.42
2023-04-18T17:32:00.173Z,65.35
2023-04-18T17:42:04.039Z,66.33
2023-04-18T17:52:06.597Z,67.65
2023-04-18T18:02:11.674Z,66.29
2023-04-18T18:12:14.156Z,68.01
2023-04-18T18:22:18.323Z,68.46
2023-04-18T18:32:21.638Z,69.62
2023-04-18T18:42:25.413Z,70.20
2023-04-18T18:52:29.657Z,70.34
2023-04-18T19:02:33.616Z,70.17
2023-04-18T19:12:36.309Z,70.58
2023-04-18T19:22:40.424Z,71.46
2023-04-18T19:32:43.100Z,71.52
2023-04-18T19:42:46.906Z,70.89
2023-04-18T19:52:49.401Z,71.52
2023-04-18T20:02:53.409Z,71.43
2023-04-18T20:12:55.985Z,72.42
2023-04-18T20:23:01.614Z,72.78
2023-04-18T20:33:04.047Z,73.38
2023-04-18T20:43:08.092Z,74.46
2023-04-18T20:53:10.666Z,74.52
2023-04-18T21:03:15.194Z,74.78
2023-04-18T21:13:17.817Z,75.31
2023-04-18T21:23:21.556Z,76.71
2023-04-18T21:33:24.522Z,76.00
2023-04-18T21:43:28.276Z,76.02
2023-04-18T21:53:30.665Z,77.66
2023-04-18T22:03:34.942Z,77.49
2023-04-18T22:13:37.425Z,76.93
2023-04-18T22:23:41.332Z,78.84
2023-04-18T22:33:43.725Z,78.37
2023-04-18T22:43:47.470Z,78.78
2023-04-18T22:53:49.884Z,79.14
2023-04-18T23:03:53.760Z,79.20
2023-04-18T23:13:56.295Z,78.42
2023-04-18T23:24:00.263Z,77.10
2023-04-18T23:34:02.666Z,77.46
2023-04-18T23:44:06.774Z,77.64
2023-04-18T23:54:09.269Z,77.73
